createdAt,value
2022-10-05T00:00:25.425Z,70.22
2022-10-05T00:03:17.795Z,70.27
2022-10-05T00:05:50.770Z,70.45
2022-10-05T00:08:26.523Z,70.25
2022-10-05T00:10:58.876Z,70.44
2022-10-05T00:13:32.226Z,70.60
2022-10-05T00:16:14.684Z,70.55
2022-10-05T00:18:50.046Z,70.59
2022-10-05T00:21:24.610Z,70.55
2022-10-05T00:23:59.785Z,70.41
2022-10-05T00:26:35.454Z,70.56
2022-10-05T00:29:22.745Z,70.52
2022-10-05T00:31:55.176Z,70.69
2022-10-05T00:34:28.392Z,70.57
2022-10-05T00:37:01.243Z,70.81
2022-10-05T00:39:34.385Z,70.93
2022-10-05T00:42:20.890Z,70.86
2022-10-05T00:44:56.734Z,70.78
2022-10-05T00:47:42.497Z,70.74
2022-10-05T00:50:44.844Z,71.05
2022-10-05T00:53:31.665Z,70.92
2022-10-05T00:56:08.021Z,70.91
2022-10-05T00:58:55.385Z,70.82
2022-10-05T01:01:33.150Z,70.92
2022-10-05T01:04:16.802Z,70.93
2022-10-05T01:07:03.303Z,71.18
2022-10-05T01:09:43.775Z,71.08
2022-10-05T01:12:24.543Z,71.10
2022-10-05T01:15:06.586Z,70.99
2022-10-05T01:17:46.053Z,71.19
2022-10-05T01:20:35.631Z,71.28
2022-10-05T01:23:33.147Z,71.17
2022-10-05T01:26:25.926Z,71.28
2022-10-05T01:29:05.090Z,71.39
2022-10-05T01:31:44.104Z,71.45
2022-10-05T01:34:29.194Z,71.57
2022-10-05T01:37:08.412Z,71.38
2022-10-05T01:39:51.722Z,71.57
2022-10-05T01:42:32.505Z,71.47
2022-10-05T01:45:10.721Z,71.39
2022-10-05T01:47:48.969Z,71.54
2022-10-05T01:50:34.423Z,71.51
2022-10-05T01:53:21.280Z,71.66
2022-10-05T01:56:00.284Z,71.65
2022-10-05T01:58:42.805Z,71.79
2022-10-05T02:01:26.972Z,71.72
2022-10-05T02:04:10.525Z,71.73
2022-10-05T02:06:46.602Z,71.79
2022-10-05T02:09:24.204Z,71.88
2022-10-05T02:12:13.161Z,71.82
2022-10-05T02:14:48.715Z,72.05
2022-10-05T02:17:21.107Z,71.89
2022-10-05T02:20:00.000Z,72.03
2022-10-05T02:22:36.679Z,72.14
2022-10-05T02:25:14.589Z,72.14
2022-10-05T02:27:51.245Z,72.12
2022-10-05T02:30:24.276Z,72.06
2022-10-05T02:33:01.380Z,72.16
2022-10-05T02:35:33.882Z,72.37
2022-10-05T02:38:15.681Z,72.20
2022-10-05T02:40:59.928Z,72.20
2022-10-05T02:43:44.529Z,72.43
2022-10-05T02:46:29.175Z,72.50
2022-10-05T02:49:13.829Z,72.39
2022-10-05T02:51:57.558Z,72.43
2022-10-05T02:54:43.864Z,72.49
2022-10-05T02:57:26.157Z,73.06
2022-10-05T03:00:03.357Z,72.84
2022-10-05T03:02:42.721Z,72.91
2022-10-05T03:05:23.424Z,72.74
2022-10-05T03:08:02.267Z,72.63
2022-10-05T03:10:40.855Z,72.88
2022-10-05T03:13:27.311Z,73.02
2022-10-05T03:16:12.830Z,72.94
2022-10-05T03:18:57.441Z,73.01
2022-10-05T03:21:44.977Z,73.05
2022-10-05T03:24:43.577Z,73.12
2022-10-05T03:27:28.382Z,73.04
2022-10-05T03:30:14.757Z,73.04
2022-10-05T03:33:01.784Z,73.24
2022-10-05T03:35:38.267Z,73.09
2022-10-05T03:38:19.261Z,73.28
2022-10-05T03:40:59.048Z,73.11
2022-10-05T03:43:51.806Z,73.26
2022-10-05T03:46:33.809Z,73.30
2022-10-05T03:49:17.019Z,73.34
2022-10-05T03:51:55.081Z,73.27
2022-10-05T03:54:32.057Z,73.45
2022-10-05T03:57:12.479Z,73.30
2022-10-05T03:59:53.462Z,73.42
2022-10-05T04:02:30.635Z,73.29
2022-10-05T04:05:12.800Z,73.36
2022-10-05T04:07:47.651Z,73.53
2022-10-05T04:10:27.003Z,73.50
2022-10-05T04:13:04.690Z,73.58
2022-10-05T04:15:43.121Z,73.61
2022-10-05T04:18:27.285Z,73.61
2022-10-05T04:21:04.323Z,73.50
2022-10-05T04:23:46.034Z,73.78
2022-10-05T04:26:21.327Z,73.81
2022-10-05T04:29:00.411Z,73.70
2022-10-05T04:31:50.008Z,73.88
2022-10-05T04:34:42.090Z,73.89
2022-10-05T04:37:22.981Z,74.00
2022-10-05T04:40:09.943Z,73.96
2022-10-05T04:42:49.028Z,74.17
2022-10-05T04:45:35.360Z,74.16
2022-10-05T04:48:21.934Z,74.13
2022-10-05T04:51:07.470Z,74.16
2022-10-05T04:53:47.774Z,74.08
2022-10-05T04:56:29.643Z,74.01
2022-10-05T04:59:20.860Z,74.27
2022-10-05T05:02:08.776Z,74.35
2022-10-05T05:05:00.128Z,74.29
2022-10-05T05:07:49.193Z,74.31
2022-10-05T05:10:45.134Z,74.54
2022-10-05T05:13:39.841Z,74.46
2022-10-05T05:16:21.456Z,74.52
2022-10-05T05:19:33.094Z,74.68
2022-10-05T05:22:09.655Z,74.93
2022-10-05T05:24:58.886Z,75.10
2022-10-05T05:27:48.674Z,75.10
2022-10-05T05:30:25.983Z,75.08
2022-10-05T05:33:20.409Z,75.09
2022-10-05T05:36:26.425Z,75.30
2022-10-05T05:39:18.383Z,75.19
2022-10-05T05:42:01.857Z,75.31
2022-10-05T05:44:41.325Z,75.19
2022-10-05T05:47:21.063Z,75.35
2022-10-05T05:50:11.673Z,75.15
2022-10-05T05:52:48.612Z,75.41
2022-10-05T05:55:29.971Z,75.41
2022-10-05T05:58:11.508Z,75.35
2022-10-05T06:00:49.770Z,75.35
2022-10-05T06:03:27.385Z,75.44
2022-10-05T06:06:03.037Z,75.64
2022-10-05T06:08:39.396Z,75.83
2022-10-05T06:11:34.272Z,75.70
2022-10-05T06:14:14.355Z,75.83
2022-10-05T06:16:52.600Z,75.83
2022-10-05T06:19:27.678Z,75.84
2022-10-05T06:22:06.835Z,76.01
2022-10-05T06:24:45.564Z,76.06
2022-10-05T06:27:28.523Z,75.99
2022-10-05T06:30:13.456Z,75.95
2022-10-05T06:33:07.627Z,76.02
2022-10-05T06:35:53.782Z,76.03
2022-10-05T06:38:50.858Z,76.29
2022-10-05T06:41:35.279Z,76.34
2022-10-05T06:44:14.260Z,76.47
2022-10-05T06:46:59.593Z,76.65
2022-10-05T06:49:58.811Z,76.66
2022-10-05T06:52:55.232Z,76.71
2022-10-05T06:55:37.985Z,76.75
2022-10-05T06:58:27.972Z,76.84
2022-10-05T07:01:06.193Z,77.00
2022-10-05T07:03:48.454Z,77.18
2022-10-05T07:06:26.873Z,77.26
2022-10-05T07:09:15.263Z,77.35
2022-10-05T07:12:04.580Z,77.24
2022-10-05T07:14:57.584Z,77.40
2022-10-05T07:17:45.735Z,77.32
2022-10-05T07:20:27.893Z,77.30
2022-10-05T07:23:19.877Z,77.42
2022-10-05T07:26:01.483Z,77.39
2022-10-05T07:28:44.801Z,77.37
2022-10-05T07:31:29.421Z,77.56
2022-10-05T07:34:10.897Z,77.38
2022-10-05T07:37:08.648Z,77.58
2022-10-05T07:40:00.250Z,77.57
2022-10-05T07:42:51.717Z,77.45
2022-10-05T07:45:35.302Z,77.70
2022-10-05T07:48:15.048Z,77.54
2022-10-05T07:50:59.956Z,77.39
2022-10-05T07:53:38.125Z,77.56
2022-10-05T07:56:22.088Z,77.50
2022-10-05T07:59:01.835Z,77.54
2022-10-05T08:01:38.787Z,77.54
2022-10-05T08:04:16.922Z,77.39
2022-10-05T08:06:55.285Z,77.28
2022-10-05T08:09:37.840Z,77.17
2022-10-05T08:12:30.926Z,77.23
2022-10-05T08:15:10.969Z,77.27
2022-10-05T08:17:51.908Z,77.43
2022-10-05T08:20:36.695Z,77.36
2022-10-05T08:23:18.972Z,77.27
2022-10-05T08:26:04.006Z,77.57
2022-10-05T08:28:52.463Z,77.53
2022-10-05T08:31:33.122Z,77.26
2022-10-05T08:34:20.320Z,77.04
2022-10-05T08:36:59.470Z,76.86
2022-10-05T08:39:38.563Z,76.96
2022-10-05T08:42:52.609Z,76.91
2022-10-05T08:45:55.536Z,76.78
2022-10-05T08:48:53.549Z,76.76
2022-10-05T08:52:02.503Z,76.79
2022-10-05T08:55:05.765Z,76.84
2022-10-05T08:58:17.397Z,76.90
2022-10-05T09:01:08.926Z,76.55
2022-10-05T09:04:20.927Z,76.25
2022-10-05T09:07:18.481Z,76.27
2022-10-05T09:10:26.003Z,75.82
2022-10-05T09:13:29.928Z,75.96
2022-10-05T09:16:37.721Z,75.55
2022-10-05T09:19:33.017Z,75.33
2022-10-05T09:22:16.619Z,75.32
2022-10-05T09:25:04.804Z,74.91
2022-10-05T09:27:40.203Z,74.99
2022-10-05T09:30:23.437Z,74.69
2022-10-05T09:33:47.611Z,74.59
2022-10-05T09:36:56.345Z,74.52
2022-10-05T09:39:52.632Z,74.38
2022-10-05T09:42:54.201Z,74.17
2022-10-05T09:46:01.448Z,73.98
2022-10-05T09:49:07.669Z,74.13
2022-10-05T09:52:12.311Z,73.99
2022-10-05T09:55:24.119Z,74.05
2022-10-05T09:58:33.510Z,74.10
2022-10-05T10:01:33.050Z,73.73
2022-10-05T10:04:43.915Z,73.66
2022-10-05T10:08:05.817Z,73.26
2022-10-05T10:10:58.337Z,73.18
2022-10-05T10:14:02.359Z,73.24
2022-10-05T10:16:53.785Z,73.24
2022-10-05T10:19:50.120Z,73.22
2022-10-05T10:23:07.976Z,73.13
2022-10-05T10:26:14.303Z,72.85
2022-10-05T10:32:20.548Z,72.38
2022-10-05T10:35:19.559Z,72.33
2022-10-05T10:38:40.320Z,71.89
2022-10-05T10:41:53.694Z,71.77
2022-10-05T10:44:52.535Z,71.68
2022-10-05T10:47:51.768Z,71.31
2022-10-05T10:50:59.018Z,71.15
2022-10-05T10:54:06.249Z,71.32
2022-10-05T10:56:59.545Z,71.13
2022-10-05T11:00:02.790Z,71.05
2022-10-05T11:03:02.285Z,71.02
2022-10-05T11:05:59.615Z,70.96
2022-10-05T11:09:09.509Z,70.74
2022-10-05T11:12:17.916Z,70.70
2022-10-05T11:15:18.354Z,70.53
2022-10-05T11:18:11.628Z,70.50
2022-10-05T11:21:05.775Z,70.51
2022-10-05T11:24:17.014Z,70.40
2022-10-05T11:27:33.111Z,70.18
2022-10-05T11:30:26.910Z,69.98
2022-10-05T11:33:48.331Z,69.77
2022-10-05T11:37:07.253Z,69.57
2022-10-05T11:39:56.352Z,69.54
2022-10-05T11:43:12.827Z,69.59
2022-10-05T11:46:02.119Z,69.23
2022-10-05T11:48:53.505Z,69.18
2022-10-05T11:51:38.355Z,69.21
2022-10-05T11:54:58.496Z,69.07
2022-10-05T11:57:34.835Z,68.80
2022-10-05T12:00:16.512Z,68.53
2022-10-05T12:03:10.948Z,68.55
2022-10-05T12:06:02.208Z,68.55
2022-10-05T12:08:51.129Z,68.40
2022-10-05T12:11:49.001Z,68.36
2022-10-05T12:14:31.095Z,68.36
2022-10-05T12:17:14.860Z,68.31
2022-10-05T12:19:51.027Z,68.08
2022-10-05T12:22:29.190Z,68.03
2022-10-05T12:25:18.065Z,68.08
2022-10-05T12:27:53.742Z,67.94
2022-10-05T12:30:38.716Z,67.90
2022-10-05T12:33:16.563Z,67.80
2022-10-05T12:35:54.078Z,67.88
2022-10-05T12:38:48.475Z,67.68
2022-10-05T12:41:28.748Z,67.80
2022-10-05T12:44:13.058Z,67.53
2022-10-05T12:47:02.349Z,67.59
2022-10-05T12:49:51.482Z,67.58
2022-10-05T12:52:43.456Z,67.40
2022-10-05T12:55:26.655Z,67.35
2022-10-05T12:58:14.637Z,67.22
2022-10-05T13:00:57.473Z,67.25
2022-10-05T13:03:35.752Z,67.23
2022-10-05T13:06:16.529Z,67.15
2022-10-05T13:08:54.950Z,66.98
2022-10-05T13:11:34.979Z,66.84
2022-10-05T13:14:19.399Z,66.95
2022-10-05T13:16:56.868Z,66.73
2022-10-05T13:19:41.692Z,66.81
2022-10-05T13:22:33.712Z,66.74
2022-10-05T13:25:23.641Z,66.72
2022-10-05T13:28:10.902Z,66.62
2022-10-05T13:30:46.916Z,66.69
2022-10-05T13:33:27.201Z,66.59
2022-10-05T13:36:08.545Z,66.66
2022-10-05T13:38:53.068Z,66.53
2022-10-05T13:41:36.145Z,66.55
2022-10-05T13:44:20.122Z,66.55
2022-10-05T13:47:00.912Z,66.45
2022-10-05T13:49:42.454Z,66.51
2022-10-05T13:52:27.240Z,66.47
2022-10-05T13:55:08.114Z,66.37
2022-10-05T13:57:54.123Z,66.43
2022-10-05T14:00:28.184Z,66.42
2022-10-05T14:03:02.142Z,66.28
2022-10-05T14:05:34.760Z,66.41
2022-10-05T14:08:20.189Z,66.39
2022-10-05T14:10:53.977Z,66.39
2022-10-05T14:13:33.453Z,66.29
2022-10-05T14:16:20.213Z,66.28
2022-10-05T14:18:59.088Z,66.41
2022-10-05T14:21:33.550Z,66.34
2022-10-05T14:24:43.094Z,66.35
2022-10-05T14:27:26.800Z,66.40
2022-10-05T14:30:06.453Z,66.39
2022-10-05T14:33:10.347Z,66.31
2022-10-05T14:35:54.656Z,66.35
2022-10-05T14:38:29.970Z,66.37
2022-10-05T14:41:25.030Z,66.39
2022-10-05T14:44:17.684Z,66.48
2022-10-05T14:47:01.290Z,66.38
2022-10-05T14:49:37.508Z,66.47
2022-10-05T14:52:34.820Z,66.41
2022-10-05T14:55:21.278Z,66.36
2022-10-05T14:58:06.680Z,66.38
2022-10-05T15:00:50.346Z,66.48
2022-10-05T15:03:36.976Z,66.39
2022-10-05T15:06:17.162Z,66.48
2022-10-05T15:08:59.607Z,66.45
2022-10-05T15:11:43.351Z,66.60
2022-10-05T15:14:20.515Z,66.55
2022-10-05T15:16:58.875Z,66.57
2022-10-05T15:19:41.566Z,66.58
2022-10-05T15:22:26.620Z,66.63
2022-10-05T15:25:02.904Z,66.61
2022-10-05T15:27:51.496Z,66.73
2022-10-05T15:30:24.666Z,66.63
2022-10-05T15:33:10.652Z,66.73
2022-10-05T15:36:04.401Z,66.85
2022-10-05T15:38:45.430Z,66.73
2022-10-05T15:41:24.102Z,66.80
2022-10-05T15:44:09.086Z,66.80
2022-10-05T15:46:53.633Z,66.92
2022-10-05T15:49:38.146Z,66.93
2022-10-05T15:52:23.946Z,67.02
2022-10-05T15:55:35.255Z,66.86
2022-10-05T15:58:31.337Z,66.90
2022-10-05T16:01:08.619Z,66.98
2022-10-05T16:03:50.457Z,66.97
2022-10-05T16:06:57.414Z,67.05
2022-10-05T16:09:50.483Z,67.04
2022-10-05T16:12:31.305Z,67.09
2022-10-05T16:15:16.955Z,67.17
2022-10-05T16:18:18.557Z,67.22
2022-10-05T16:20:55.078Z,67.27
2022-10-05T16:23:39.214Z,67.32
2022-10-05T16:26:22.753Z,67.37
2022-10-05T16:29:03.984Z,67.36
2022-10-05T16:31:47.164Z,67.44
2022-10-05T16:34:30.916Z,67.48
2022-10-05T16:37:12.745Z,67.55
2022-10-05T16:39:53.148Z,67.55
2022-10-05T16:42:36.314Z,67.71
2022-10-05T16:45:22.978Z,67.78
2022-10-05T16:48:04.880Z,67.80
2022-10-05T16:50:48.905Z,67.79
2022-10-05T16:53:26.569Z,67.79
2022-10-05T16:56:03.230Z,67.82
2022-10-05T16:58:50.987Z,67.87
2022-10-05T17:01:42.349Z,67.96
2022-10-05T17:04:26.236Z,68.04
2022-10-05T17:07:32.678Z,68.14
2022-10-05T17:10:41.189Z,68.26
2022-10-05T17:13:37.507Z,68.25
2022-10-05T17:16:19.281Z,68.33
2022-10-05T17:19:19.341Z,68.44
2022-10-05T17:22:00.764Z,68.49
2022-10-05T17:24:55.106Z,68.39
2022-10-05T17:27:35.565Z,68.60
2022-10-05T17:30:53.986Z,68.58
2022-10-05T17:33:29.163Z,68.57
2022-10-05T17:36:21.577Z,68.77
2022-10-05T17:39:12.292Z,68.74
2022-10-05T17:41:45.368Z,68.84
2022-10-05T17:44:26.467Z,68.92
2022-10-05T17:47:04.619Z,68.90
2022-10-05T17:50:09.995Z,68.84
2022-10-05T17:53:02.263Z,69.01
2022-10-05T17:55:46.799Z,68.96
2022-10-05T17:59:02.382Z,69.10
2022-10-05T18:01:37.436Z,69.15
2022-10-05T18:04:33.764Z,69.23
2022-10-05T18:07:16.857Z,69.26
2022-10-05T18:10:29.110Z,69.27
2022-10-05T18:13:35.600Z,69.44
2022-10-05T18:16:11.120Z,69.41
2022-10-05T18:18:58.222Z,69.53
2022-10-05T18:21:39.106Z,69.59
2022-10-05T18:24:45.557Z,69.53
2022-10-05T18:27:42.850Z,69.54
2022-10-05T18:30:23.346Z,69.65
2022-10-05T18:33:27.289Z,69.77
2022-10-05T18:36:19.541Z,69.72
2022-10-05T18:39:01.318Z,69.76
2022-10-05T18:41:48.490Z,69.76
2022-10-05T18:44:35.732Z,69.80
2022-10-05T18:47:18.367Z,69.87
2022-10-05T18:50:26.358Z,69.95
2022-10-05T18:53:16.264Z,69.97
2022-10-05T18:55:59.023Z,69.95
2022-10-05T18:58:42.118Z,70.06
2022-10-05T19:01:36.613Z,70.11
2022-10-05T19:04:22.633Z,70.23
2022-10-05T19:07:05.965Z,70.09
2022-10-05T19:09:53.940Z,70.10
2022-10-05T19:12:41.545Z,70.19
2022-10-05T19:15:24.954Z,70.19
2022-10-05T19:18:15.481Z,70.17
2022-10-05T19:20:55.731Z,70.34
2022-10-05T19:23:46.756Z,70.37
2022-10-05T19:26:30.081Z,70.45
2022-10-05T19:29:14.027Z,70.48
2022-10-05T19:31:51.521Z,70.49
2022-10-05T19:34:41.161Z,70.48
2022-10-05T19:37:19.077Z,70.57
2022-10-05T19:39:57.813Z,70.63
2022-10-05T19:42:53.569Z,70.62
2022-10-05T19:45:27.576Z,70.68
2022-10-05T19:48:14.118Z,70.66
2022-10-05T19:50:56.283Z,70.60
2022-10-05T19:53:31.278Z,70.85
2022-10-05T19:56:20.495Z,70.84
2022-10-05T19:58:57.502Z,70.97
2022-10-05T20:01:35.517Z,70.97
2022-10-05T20:04:09.582Z,70.89
2022-10-05T20:06:42.310Z,70.99
2022-10-05T20:09:24.799Z,71.07
2022-10-05T20:11:57.730Z,71.11
2022-10-05T20:14:58.550Z,71.15
2022-10-05T20:17:49.525Z,71.19
2022-10-05T20:20:32.137Z,71.28
2022-10-05T20:23:21.926Z,71.27
2022-10-05T20:26:17.500Z,71.31
2022-10-05T20:28:48.307Z,71.44
2022-10-05T20:31:21.474Z,71.40
2022-10-05T20:33:53.760Z,71.58
2022-10-05T20:36:26.096Z,71.48
2022-10-05T20:39:00.830Z,71.54
2022-10-05T20:41:35.935Z,71.59
2022-10-05T20:44:08.458Z,71.60
2022-10-05T20:46:41.784Z,71.63
2022-10-05T20:49:14.497Z,71.76
2022-10-05T20:51:46.764Z,71.67
2022-10-05T20:54:19.137Z,71.79
2022-10-05T20:56:51.777Z,71.79
2022-10-05T20:59:24.970Z,71.75
2022-10-05T21:01:59.109Z,71.81
2022-10-05T21:04:40.049Z,71.88
2022-10-05T21:07:13.111Z,71.93
2022-10-05T21:09:46.709Z,71.95
2022-10-05T21:12:19.248Z,72.05
2022-10-05T21:14:52.828Z,72.04
2022-10-05T21:17:25.084Z,72.07
2022-10-05T21:19:57.652Z,72.09
2022-10-05T21:22:30.264Z,72.11
2022-10-05T21:25:02.582Z,72.30
2022-10-05T21:27:34.951Z,72.23
2022-10-05T21:30:08.666Z,72.31
2022-10-05T21:32:44.464Z,72.28
2022-10-05T21:35:17.313Z,72.32
2022-10-05T21:37:49.616Z,72.34
2022-10-05T21:40:21.900Z,72.41
2022-10-05T21:42:54.241Z,72.51
2022-10-05T21:45:26.726Z,72.46
2022-10-05T21:48:00.095Z,72.44
2022-10-05T21:50:33.615Z,72.49
2022-10-05T21:53:12.275Z,72.54
2022-10-05T21:55:48.508Z,72.58
2022-10-05T21:58:28.048Z,72.67
2022-10-05T22:01:00.648Z,72.71
2022-10-05T22:03:57.049Z,72.62
2022-10-05T22:06:29.401Z,72.68
2022-10-05T22:09:02.034Z,72.74
2022-10-05T22:11:34.785Z,72.71
2022-10-05T22:14:07.105Z,72.80
2022-10-05T22:16:40.639Z,72.83
2022-10-05T22:19:20.073Z,72.78
2022-10-05T22:21:52.583Z,72.91
2022-10-05T22:24:24.982Z,72.79
2022-10-05T22:26:57.331Z,72.87
2022-10-05T22:29:29.708Z,72.85
2022-10-05T22:32:02.110Z,72.84
2022-10-05T22:34:34.537Z,72.93
2022-10-05T22:37:07.634Z,72.85
2022-10-05T22:39:40.006Z,72.96
2022-10-05T22:42:12.403Z,72.91
2022-10-05T22:44:44.673Z,73.05
2022-10-05T22:47:17.248Z,73.06
2022-10-05T22:49:49.539Z,73.08
2022-10-05T22:52:21.839Z,73.04
2022-10-05T22:54:54.260Z,73.06
2022-10-05T22:57:26.624Z,73.11
2022-10-05T22:59:58.923Z,73.15
2022-10-05T23:02:31.301Z,73.16
2022-10-05T23:05:03.603Z,73.21
2022-10-05T23:07:40.004Z,73.17
2022-10-05T23:10:15.103Z,73.19
2022-10-05T23:12:59.694Z,73.21
2022-10-05T23:15:33.989Z,73.26
2022-10-05T23:18:06.344Z,73.41
2022-10-05T23:20:38.608Z,73.39
2022-10-05T23:23:10.860Z,73.32
2022-10-05T23:25:43.212Z,73.35
2022-10-05T23:28:15.527Z,73.34
2022-10-05T23:30:48.210Z,73.31
2022-10-05T23:33:20.562Z,73.49
2022-10-05T23:36:00.310Z,73.50
2022-10-05T23:38:32.792Z,73.37
2022-10-05T23:41:06.265Z,73.43
2022-10-05T23:43:39.334Z,73.42
2022-10-05T23:46:12.693Z,73.48
2022-10-05T23:48:44.954Z,73.51
2022-10-05T23:51:17.293Z,73.54
2022-10-05T23:53:49.652Z,73.51
2022-10-05T23:56:22.181Z,73.64
2022-10-05T23:58:54.504Z,73.62
